createdAt,value
2017-09-10T00:02:17.576Z,74.80
2017-09-10T00:04:44.089Z,75.10
2017-09-10T00:07:10.529Z,74.80
2017-09-10T00:09:37.082Z,74.80
2017-09-10T00:12:04.230Z,74.60
2017-09-10T00:14:31.432Z,74.70
2017-09-10T00:16:57.853Z,74.50
2017-09-10T00:19:24.297Z,74.50
2017-09-10T00:21:50.765Z,74.40
2017-09-10T00:24:17.911Z,74.70
2017-09-10T00:26:44.363Z,74.40
2017-09-10T00:29:10.791Z,74.60
2017-09-10T00:31:37.239Z,74.40
2017-09-10T00:34:03.712Z,74.40
2017-09-10T00:36:30.191Z,74.20
2017-09-10T00:38:56.620Z,74.20
2017-09-10T00:41:23.859Z,74.10
2017-09-10T00:43:51.078Z,73.80
2017-09-10T00:46:17.557Z,73.80
2017-09-10T00:48:44.721Z,74.10
2017-09-10T00:51:11.186Z,73.90
2017-09-10T00:53:37.677Z,73.80
2017-09-10T00:56:05.159Z,73.60
2017-09-10T00:58:31.749Z,74.00
2017-09-10T01:00:58.982Z,74.30
2017-09-10T01:03:26.230Z,74.40
2017-09-10T01:05:52.717Z,74.30
2017-09-10T01:08:19.174Z,74.10
2017-09-10T01:10:45.630Z,73.90
2017-09-10T01:13:12.095Z,74.20
2017-09-10T01:15:38.596Z,74.40
2017-09-10T01:18:05.938Z,74.20
2017-09-10T01:20:32.390Z,74.10
2017-09-10T01:22:59.054Z,74.20
2017-09-10T01:25:25.541Z,74.40
2017-09-10T01:27:52.021Z,74.30
2017-09-10T01:30:18.425Z,74.30
2017-09-10T01:32:44.853Z,74.60
2017-09-10T01:35:11.292Z,74.30
2017-09-10T01:37:37.802Z,74.40
2017-09-10T01:40:04.202Z,74.50
2017-09-10T01:42:30.658Z,74.70
2017-09-10T01:44:57.101Z,74.90
2017-09-10T01:47:23.562Z,75.00
2017-09-10T01:49:49.971Z,75.40
2017-09-10T01:52:16.438Z,75.50
2017-09-10T01:54:42.866Z,75.60
2017-09-10T01:57:09.293Z,75.40
2017-09-10T01:59:35.720Z,75.30
2017-09-10T02:02:02.170Z,75.10
2017-09-10T02:04:29.382Z,75.00
2017-09-10T02:06:55.858Z,75.00
2017-09-10T02:09:22.285Z,74.30
2017-09-10T02:11:49.449Z,74.50
2017-09-10T02:14:15.925Z,74.40
2017-09-10T02:16:42.385Z,74.50
2017-09-10T02:19:08.833Z,74.90
2017-09-10T02:21:35.321Z,74.80
2017-09-10T02:24:01.726Z,73.70
2017-09-10T02:26:28.869Z,73.40
2017-09-10T02:28:56.061Z,73.40
2017-09-10T02:31:22.512Z,73.50
2017-09-10T02:33:48.925Z,73.50
2017-09-10T02:36:15.354Z,73.90
2017-09-10T02:38:41.797Z,73.90
2017-09-10T02:41:08.258Z,75.10
2017-09-10T02:43:34.690Z,74.30
2017-09-10T02:46:01.167Z,74.10
2017-09-10T02:48:27.583Z,74.00
2017-09-10T02:50:54.022Z,73.80
2017-09-10T02:53:21.190Z,73.80
2017-09-10T02:55:47.613Z,73.80
2017-09-10T02:58:14.801Z,74.10
2017-09-10T03:00:41.283Z,74.10
2017-09-10T03:03:07.782Z,74.40
2017-09-10T03:05:34.229Z,74.40
2017-09-10T03:08:00.660Z,73.90
2017-09-10T03:10:27.060Z,74.00
2017-09-10T03:12:53.497Z,73.60
2017-09-10T03:15:19.913Z,73.80
2017-09-10T03:17:46.368Z,74.00
2017-09-10T03:20:12.813Z,74.40
2017-09-10T03:22:40.019Z,75.00
2017-09-10T03:25:06.425Z,74.10
2017-09-10T03:27:33.592Z,74.00
2017-09-10T03:30:00.767Z,74.00
2017-09-10T03:32:27.178Z,74.00
2017-09-10T03:34:53.602Z,74.00
2017-09-10T03:37:20.053Z,73.80
2017-09-10T03:39:46.465Z,74.00
2017-09-10T03:42:13.618Z,74.30
2017-09-10T03:44:40.102Z,74.30
2017-09-10T03:47:06.521Z,74.40
2017-09-10T03:49:32.974Z,74.50
2017-09-10T03:51:59.401Z,74.80
2017-09-10T03:54:25.811Z,74.90
2017-09-10T03:56:52.270Z,74.80
2017-09-10T03:59:18.719Z,74.60
2017-09-10T04:01:45.148Z,73.90
2017-09-10T04:04:11.589Z,74.50
2017-09-10T04:06:38.068Z,75.20
2017-09-10T04:09:04.476Z,74.60
2017-09-10T04:11:30.893Z,74.60
2017-09-10T04:13:57.354Z,74.90
2017-09-10T04:16:23.874Z,74.90
2017-09-10T04:18:50.312Z,74.50
2017-09-10T04:21:17.493Z,74.70
2017-09-10T04:23:43.992Z,74.70
2017-09-10T04:26:11.200Z,74.30
2017-09-10T04:28:37.617Z,74.30
2017-09-10T04:31:04.088Z,74.10
2017-09-10T04:33:31.336Z,74.50
2017-09-10T04:35:58.565Z,74.30
2017-09-10T04:38:25.040Z,74.20
2017-09-10T04:40:51.520Z,74.00
2017-09-10T04:43:17.952Z,74.80
2017-09-10T04:45:44.408Z,75.40
2017-09-10T04:48:10.937Z,75.60
2017-09-10T04:50:37.356Z,75.20
2017-09-10T04:53:03.778Z,74.80
2017-09-10T04:55:30.277Z,75.00
2017-09-10T04:57:56.729Z,74.90
2017-09-10T05:00:23.221Z,74.50
2017-09-10T05:02:50.420Z,75.20
2017-09-10T05:05:16.917Z,75.10
2017-09-10T05:07:43.366Z,74.60
2017-09-10T05:10:10.548Z,75.40
2017-09-10T05:12:36.995Z,75.30
2017-09-10T05:15:03.474Z,74.90
2017-09-10T05:17:30.681Z,75.00
2017-09-10T05:19:57.161Z,75.00
2017-09-10T05:22:23.738Z,75.00
2017-09-10T05:24:50.157Z,74.80
2017-09-10T05:27:16.552Z,74.80
2017-09-10T05:29:42.993Z,74.60
2017-09-10T05:32:10.297Z,74.40
2017-09-10T05:34:36.801Z,74.40
2017-09-10T05:37:03.270Z,74.30
2017-09-10T05:39:29.723Z,73.90
2017-09-10T05:41:56.924Z,74.10
2017-09-10T05:44:23.419Z,74.10
2017-09-10T05:46:49.905Z,74.20
2017-09-10T05:49:16.384Z,74.10
2017-09-10T05:51:43.561Z,74.30
2017-09-10T05:54:10.745Z,74.10
2017-09-10T05:56:37.158Z,74.10
2017-09-10T05:59:03.622Z,74.10
2017-09-10T06:01:30.054Z,73.70
2017-09-10T06:03:56.466Z,73.60
2017-09-10T06:06:22.901Z,73.80
2017-09-10T06:08:49.334Z,73.70
2017-09-10T06:11:15.780Z,74.10
2017-09-10T06:13:42.208Z,74.00
2017-09-10T06:16:08.661Z,74.20
2017-09-10T06:18:35.165Z,74.10
2017-09-10T06:21:01.671Z,74.00
2017-09-10T06:23:28.117Z,74.50
2017-09-10T06:25:54.525Z,74.50
2017-09-10T06:28:20.971Z,74.70
2017-09-10T06:30:47.412Z,74.30
2017-09-10T06:33:14.585Z,74.10
2017-09-10T06:35:40.997Z,74.00
2017-09-10T06:38:07.436Z,73.70
2017-09-10T06:40:33.874Z,73.60
2017-09-10T06:43:00.333Z,73.70
2017-09-10T06:45:26.775Z,73.60
2017-09-10T06:47:53.272Z,74.10
2017-09-10T06:50:19.721Z,74.10
2017-09-10T06:52:46.172Z,74.00
2017-09-10T06:55:12.708Z,73.40
2017-09-10T06:57:39.120Z,72.50
2017-09-10T07:00:05.545Z,72.90
2017-09-10T07:02:32.034Z,72.50
2017-09-10T07:04:58.508Z,72.30
2017-09-10T07:07:24.926Z,72.10
2017-09-10T07:09:51.366Z,72.30
2017-09-10T07:12:17.828Z,72.20
2017-09-10T07:14:44.297Z,72.70
2017-09-10T07:17:10.726Z,72.40
2017-09-10T07:19:37.209Z,72.40
2017-09-10T07:22:03.658Z,72.30
2017-09-10T07:24:30.177Z,72.10
2017-09-10T07:26:56.620Z,71.00
2017-09-10T07:29:23.048Z,71.40
2017-09-10T07:31:49.492Z,71.50
2017-09-10T07:34:15.918Z,70.80
2017-09-10T07:36:42.370Z,70.90
2017-09-10T07:39:08.826Z,70.70
2017-09-10T07:41:36.005Z,70.80
2017-09-10T07:44:02.526Z,70.50
2017-09-10T07:46:29.004Z,69.30
2017-09-10T07:48:55.432Z,69.00
2017-09-10T07:51:21.889Z,68.80
2017-09-10T07:53:49.122Z,67.80
2017-09-10T07:56:15.552Z,67.70
2017-09-10T07:58:41.987Z,67.20
2017-09-10T08:01:08.457Z,66.90
2017-09-10T08:03:34.868Z,67.00
2017-09-10T08:06:01.294Z,66.70
2017-09-10T08:08:27.749Z,66.30
2017-09-10T08:10:54.260Z,66.00
2017-09-10T08:13:20.732Z,65.60
2017-09-10T08:15:47.194Z,64.30
2017-09-10T08:18:13.694Z,64.80
2017-09-10T08:20:40.110Z,64.90
2017-09-10T08:23:06.558Z,64.70
2017-09-10T08:25:33.816Z,66.50
2017-09-10T08:28:00.260Z,65.90
2017-09-10T08:30:26.803Z,65.40
2017-09-10T08:32:54.010Z,66.30
2017-09-10T08:35:20.491Z,66.20
2017-09-10T08:37:46.969Z,65.70
2017-09-10T08:40:13.450Z,65.20
2017-09-10T08:42:40.678Z,64.10
2017-09-10T08:45:07.129Z,64.10
2017-09-10T08:47:33.646Z,64.60
2017-09-10T08:50:00.108Z,63.50
2017-09-10T08:52:27.268Z,63.60
2017-09-10T08:54:53.736Z,63.60
2017-09-10T08:57:20.172Z,61.20
2017-09-10T08:59:46.637Z,60.10
2017-09-10T09:02:13.820Z,59.20
2017-09-10T09:04:41.040Z,58.40
2017-09-10T09:07:08.234Z,59.90
2017-09-10T09:09:34.660Z,59.90
2017-09-10T09:12:01.089Z,59.60
2017-09-10T09:14:27.584Z,58.70
2017-09-10T09:16:54.814Z,58.10
2017-09-10T09:19:22.030Z,58.00
2017-09-10T09:21:49.261Z,56.80
2017-09-10T09:24:16.486Z,56.00
2017-09-10T09:26:43.699Z,56.20
2017-09-10T09:29:10.156Z,56.20
2017-09-10T09:31:36.653Z,55.60
2017-09-10T09:34:03.155Z,55.60
2017-09-10T09:36:30.309Z,55.60
2017-09-10T09:38:57.482Z,55.70
2017-09-10T09:41:23.927Z,55.70
2017-09-10T09:43:50.385Z,56.30
2017-09-10T09:46:16.857Z,54.80
2017-09-10T09:48:44.037Z,54.40
2017-09-10T09:51:10.570Z,54.40
2017-09-10T09:53:37.087Z,54.30
2017-09-10T09:56:03.544Z,53.40
2017-09-10T09:58:30.019Z,53.20
2017-09-10T10:00:56.437Z,52.00
2017-09-10T10:03:22.961Z,50.30
2017-09-10T10:05:49.404Z,49.50
2017-09-10T10:08:15.834Z,49.30
2017-09-10T10:10:43.062Z,49.10
2017-09-10T10:13:09.484Z,49.00
2017-09-10T10:15:36.022Z,48.10
2017-09-10T10:18:02.454Z,46.90
2017-09-10T10:20:28.961Z,45.40
2017-09-10T10:22:56.129Z,46.10
2017-09-10T10:25:22.630Z,46.00
2017-09-10T10:27:49.149Z,46.90
2017-09-10T10:30:15.618Z,48.30
2017-09-10T10:32:42.750Z,48.00
2017-09-10T10:35:09.978Z,50.00
2017-09-10T10:37:36.407Z,49.90
2017-09-10T10:40:04.469Z,50.90
2017-09-10T10:42:30.930Z,50.90
2017-09-10T10:44:57.422Z,53.20
2017-09-10T10:47:23.854Z,54.40
2017-09-10T10:49:50.325Z,54.50
2017-09-10T10:52:16.789Z,54.70
2017-09-10T10:54:43.274Z,51.70
2017-09-10T10:57:10.482Z,53.00
2017-09-10T10:59:37.644Z,52.10
2017-09-10T11:02:04.178Z,52.10
2017-09-10T11:04:30.655Z,49.90
2017-09-10T11:06:57.075Z,47.90
2017-09-10T11:09:23.559Z,48.30
2017-09-10T11:11:50.018Z,47.80
2017-09-10T11:14:16.420Z,47.20
2017-09-10T11:16:42.860Z,47.00
2017-09-10T11:19:10.060Z,46.90
2017-09-10T11:21:36.582Z,46.80
2017-09-10T11:24:03.043Z,47.60
2017-09-10T11:26:29.470Z,47.90
2017-09-10T11:28:55.897Z,48.50
2017-09-10T11:31:23.126Z,47.80
2017-09-10T11:33:49.586Z,47.70
2017-09-10T11:36:16.038Z,45.90
2017-09-10T11:38:43.194Z,48.10
2017-09-10T11:41:09.642Z,48.00
2017-09-10T11:43:36.801Z,49.60
2017-09-10T11:46:03.261Z,49.50
2017-09-10T11:48:29.676Z,49.20
2017-09-10T11:50:56.131Z,49.40
2017-09-10T11:53:22.573Z,49.80
2017-09-10T11:55:49.022Z,51.00
2017-09-10T11:58:15.565Z,50.80
2017-09-10T12:00:42.076Z,49.70
2017-09-10T12:03:08.564Z,48.80
2017-09-10T12:05:35.088Z,48.80
2017-09-10T12:08:01.550Z,50.50
2017-09-10T12:10:28.011Z,52.30
2017-09-10T12:12:55.253Z,52.60
2017-09-10T12:15:21.722Z,52.70
2017-09-10T12:17:48.167Z,52.40
2017-09-10T12:20:15.367Z,52.30
2017-09-10T12:22:41.805Z,52.20
2017-09-10T12:25:08.306Z,53.50
2017-09-10T12:27:35.497Z,54.80
2017-09-10T12:30:02.746Z,53.50
2017-09-10T12:32:29.179Z,53.40
2017-09-10T12:34:55.704Z,53.20
2017-09-10T12:37:22.168Z,52.10
2017-09-10T12:39:48.626Z,52.60
2017-09-10T12:42:15.813Z,51.00
2017-09-10T12:44:42.217Z,51.00
2017-09-10T12:47:08.688Z,52.80
2017-09-10T12:49:35.102Z,53.80
2017-09-10T12:52:01.546Z,54.20
2017-09-10T12:54:27.974Z,54.30
2017-09-10T12:56:55.185Z,51.60
2017-09-10T12:59:22.355Z,52.10
2017-09-10T13:01:48.836Z,51.90
2017-09-10T13:04:15.283Z,52.30
2017-09-10T13:06:41.716Z,50.50
2017-09-10T13:09:08.186Z,52.40
2017-09-10T13:11:35.340Z,50.10
2017-09-10T13:14:01.834Z,50.00
2017-09-10T13:16:28.345Z,51.10
2017-09-10T13:18:54.778Z,50.80
2017-09-10T13:21:21.202Z,52.00
2017-09-10T13:23:47.670Z,51.90
2017-09-10T13:26:14.889Z,51.90
2017-09-10T13:28:41.326Z,51.90
2017-09-10T13:31:07.785Z,50.90
2017-09-10T13:33:34.218Z,52.10
2017-09-10T13:36:00.659Z,52.10
2017-09-10T13:38:27.107Z,52.30
2017-09-10T13:40:54.311Z,50.80
2017-09-10T13:43:20.774Z,50.90
2017-09-10T13:45:47.987Z,51.30
2017-09-10T13:48:14.454Z,51.20
2017-09-10T13:50:40.870Z,52.20
2017-09-10T13:53:07.333Z,52.40
2017-09-10T13:55:34.594Z,52.40
2017-09-10T13:58:01.108Z,52.40
2017-09-10T14:00:28.325Z,52.80
2017-09-10T14:02:54.779Z,52.90
2017-09-10T14:05:21.238Z,52.90
2017-09-10T14:07:48.412Z,53.30
2017-09-10T14:10:14.953Z,53.20
2017-09-10T14:12:41.437Z,52.80
2017-09-10T14:15:07.926Z,52.90
2017-09-10T14:17:34.365Z,52.60
2017-09-10T14:20:00.798Z,52.10
2017-09-10T14:22:27.253Z,52.70
2017-09-10T14:24:53.699Z,51.80
2017-09-10T14:27:20.168Z,51.90
2017-09-10T14:29:47.361Z,51.40
2017-09-10T14:32:13.838Z,51.40
2017-09-10T14:34:41.097Z,51.80
2017-09-10T14:37:08.278Z,51.60
2017-09-10T14:39:34.741Z,51.50
2017-09-10T14:42:01.197Z,51.30
2017-09-10T14:44:27.638Z,51.30
2017-09-10T14:46:54.837Z,51.50
2017-09-10T14:49:21.269Z,51.40
2017-09-10T14:51:47.704Z,51.20
2017-09-10T14:54:14.194Z,51.50
2017-09-10T14:56:40.640Z,51.70
2017-09-10T14:59:07.823Z,52.30
2017-09-10T15:01:34.294Z,52.20
2017-09-10T15:04:01.543Z,51.70
2017-09-10T15:06:28.021Z,51.70
2017-09-10T15:08:55.204Z,51.60
2017-09-10T15:11:21.674Z,51.70
2017-09-10T15:13:48.159Z,51.90
2017-09-10T15:16:14.617Z,52.30
2017-09-10T15:18:41.170Z,52.20
2017-09-10T15:21:07.618Z,52.10
2017-09-10T15:23:34.153Z,52.60
2017-09-10T15:26:01.366Z,51.40
2017-09-10T15:28:28.543Z,51.30
2017-09-10T15:30:55.085Z,51.30
2017-09-10T15:33:21.504Z,50.80
2017-09-10T15:35:47.971Z,51.40
2017-09-10T15:38:14.408Z,52.30
2017-09-10T15:40:40.842Z,52.00
2017-09-10T15:43:07.302Z,52.40
2017-09-10T15:45:33.724Z,52.10
2017-09-10T15:48:00.236Z,51.90
2017-09-10T15:50:26.772Z,51.50
2017-09-10T15:52:53.979Z,50.60
2017-09-10T15:55:20.491Z,50.60
2017-09-10T15:57:46.976Z,50.50
2017-09-10T16:00:14.230Z,50.40
2017-09-10T16:02:40.702Z,50.30
2017-09-10T16:05:07.143Z,50.40
2017-09-10T16:07:33.597Z,50.50
2017-09-10T16:10:00.036Z,50.90
2017-09-10T16:12:27.302Z,51.80
2017-09-10T16:14:53.781Z,51.70
2017-09-10T16:17:21.033Z,52.10
2017-09-10T16:19:47.473Z,52.10
2017-09-10T16:22:13.965Z,52.40
2017-09-10T16:24:41.188Z,52.20
2017-09-10T16:27:07.666Z,52.20
2017-09-10T16:29:34.169Z,52.10
2017-09-10T16:32:00.631Z,51.50
2017-09-10T16:34:27.159Z,52.30
2017-09-10T16:36:54.347Z,52.50
2017-09-10T16:39:20.852Z,52.50
2017-09-10T16:41:47.318Z,52.60
2017-09-10T16:44:13.873Z,52.80
2017-09-10T16:46:41.123Z,53.20
2017-09-10T16:49:07.572Z,53.20
2017-09-10T16:51:34.100Z,53.10
2017-09-10T16:54:00.540Z,53.30
2017-09-10T16:56:27.855Z,53.30
2017-09-10T16:58:54.353Z,53.30
2017-09-10T17:01:21.535Z,54.10
2017-09-10T17:03:47.995Z,54.10
2017-09-10T17:06:14.433Z,54.30
2017-09-10T17:08:41.639Z,54.40
2017-09-10T17:11:08.107Z,54.40
2017-09-10T17:13:34.583Z,54.40
2017-09-10T17:16:01.774Z,55.20
2017-09-10T17:18:28.193Z,55.10
2017-09-10T17:20:54.646Z,55.30
2017-09-10T17:23:21.107Z,55.10
2017-09-10T17:25:47.568Z,55.40
2017-09-10T17:28:14.039Z,55.70
2017-09-10T17:30:40.470Z,56.00
2017-09-10T17:33:06.963Z,56.10
2017-09-10T17:35:33.479Z,56.70
2017-09-10T17:38:00.738Z,58.50
2017-09-10T17:40:27.196Z,58.50
2017-09-10T17:42:53.643Z,59.60
2017-09-10T17:45:20.117Z,60.00
2017-09-10T17:47:46.657Z,59.80
2017-09-10T17:50:13.115Z,59.50
2017-09-10T17:52:40.290Z,59.10
2017-09-10T17:55:06.824Z,59.00
2017-09-10T17:57:33.285Z,59.00
2017-09-10T17:59:59.741Z,58.80
2017-09-10T18:02:26.932Z,58.10
2017-09-10T18:04:54.095Z,58.10
2017-09-10T18:07:20.544Z,58.00
2017-09-10T18:09:47.030Z,58.60
2017-09-10T18:12:13.550Z,58.80
2017-09-10T18:14:40.030Z,58.60
2017-09-10T18:17:06.504Z,58.80
2017-09-10T18:19:33.765Z,59.50
2017-09-10T18:22:00.279Z,58.90
2017-09-10T18:24:26.773Z,58.50
2017-09-10T18:26:53.966Z,58.90
2017-09-10T18:29:20.430Z,58.90
2017-09-10T18:31:46.943Z,59.40
2017-09-10T18:34:13.425Z,59.70
2017-09-10T18:36:40.650Z,60.20
2017-09-10T18:39:07.213Z,60.20
2017-09-10T18:41:33.671Z,60.10
2017-09-10T18:44:00.124Z,60.00
2017-09-10T18:46:26.562Z,60.30
2017-09-10T18:48:53.053Z,60.70
2017-09-10T18:51:19.512Z,61.00
2017-09-10T18:53:45.967Z,61.60
2017-09-10T18:56:13.157Z,62.00
2017-09-10T18:58:40.421Z,61.90
2017-09-10T19:01:06.894Z,61.90
2017-09-10T19:03:33.330Z,62.20
2017-09-10T19:05:59.825Z,62.20
2017-09-10T19:08:26.293Z,62.10
2017-09-10T19:10:52.725Z,62.00
2017-09-10T19:13:19.192Z,61.90
2017-09-10T19:15:45.653Z,62.40
2017-09-10T19:18:12.116Z,63.60
2017-09-10T19:20:38.581Z,62.90
2017-09-10T19:23:05.779Z,62.60
2017-09-10T19:25:32.221Z,62.50
2017-09-10T19:27:58.776Z,62.70
2017-09-10T19:30:25.202Z,62.80
2017-09-10T19:32:51.616Z,63.00
2017-09-10T19:35:18.070Z,63.30
2017-09-10T19:37:44.498Z,63.10
2017-09-10T19:40:10.971Z,62.90
2017-09-10T19:42:38.137Z,63.20
2017-09-10T19:45:04.611Z,62.90
2017-09-10T19:47:31.111Z,62.80
2017-09-10T19:49:58.345Z,63.10
2017-09-10T19:52:24.789Z,63.10
2017-09-10T19:54:51.962Z,64.00
2017-09-10T19:57:18.421Z,63.20
2017-09-10T19:59:44.854Z,63.50
2017-09-10T20:02:11.327Z,63.50
2017-09-10T20:04:37.757Z,64.10
2017-09-10T20:07:04.278Z,64.00
2017-09-10T20:09:30.703Z,64.20
2017-09-10T20:11:57.196Z,64.10
2017-09-10T20:14:23.634Z,64.20
2017-09-10T20:16:50.117Z,64.10
2017-09-10T20:19:16.556Z,64.20
2017-09-10T20:21:43.020Z,64.30
2017-09-10T20:24:09.539Z,64.30
2017-09-10T20:26:36.718Z,65.10
2017-09-10T20:29:03.170Z,64.90
2017-09-10T20:31:29.628Z,65.70
2017-09-10T20:33:56.067Z,65.80
2017-09-10T20:36:22.491Z,66.00
2017-09-10T20:38:48.978Z,65.80
2017-09-10T20:41:15.457Z,65.80
2017-09-10T20:43:41.957Z,65.90
2017-09-10T20:46:08.390Z,65.60
2017-09-10T20:48:34.820Z,65.50
2017-09-10T20:51:01.321Z,65.70
2017-09-10T20:53:28.477Z,67.00
2017-09-10T20:55:55.523Z,67.00
2017-09-10T20:58:22.679Z,69.50
2017-09-10T21:00:49.120Z,69.00
2017-09-10T21:03:15.647Z,69.10
2017-09-10T21:05:42.093Z,69.00
2017-09-10T21:08:08.537Z,69.30
2017-09-10T21:10:34.988Z,69.20
2017-09-10T21:13:01.482Z,69.00
2017-09-10T21:15:28.703Z,68.50
2017-09-10T21:17:55.916Z,68.40
2017-09-10T21:20:22.359Z,68.30
2017-09-10T21:22:48.868Z,68.00
2017-09-10T21:25:15.310Z,67.70
2017-09-10T21:27:41.761Z,68.00
2017-09-10T21:30:08.193Z,67.80
2017-09-10T21:32:34.634Z,67.80
2017-09-10T21:35:01.078Z,68.90
2017-09-10T21:37:27.500Z,68.80
2017-09-10T21:39:53.915Z,68.80
2017-09-10T21:42:20.406Z,68.60
2017-09-10T21:44:46.899Z,68.40
2017-09-10T21:47:13.326Z,68.60
2017-09-10T21:49:39.802Z,68.30
2017-09-10T21:52:06.978Z,67.90
2017-09-10T21:54:33.390Z,68.60
2017-09-10T21:56:59.867Z,67.50
2017-09-10T21:59:26.282Z,67.20
2017-09-10T22:01:52.713Z,67.60
2017-09-10T22:04:19.161Z,67.60
2017-09-10T22:06:45.614Z,67.20
2017-09-10T22:09:12.133Z,67.30
2017-09-10T22:11:38.584Z,67.00
2017-09-10T22:14:04.990Z,67.20
2017-09-10T22:16:31.480Z,68.30
2017-09-10T22:18:58.651Z,70.30
2017-09-10T22:21:25.823Z,70.60
2017-09-10T22:23:52.283Z,71.30
2017-09-10T22:26:19.506Z,70.60
2017-09-10T22:28:45.928Z,70.60
2017-09-10T22:31:12.408Z,70.10
2017-09-10T22:33:38.861Z,72.00
2017-09-10T22:36:06.009Z,72.70
2017-09-10T22:38:33.196Z,72.10
2017-09-10T22:40:59.652Z,72.00
2017-09-10T22:43:26.093Z,71.40
2017-09-10T22:45:52.543Z,70.10
2017-09-10T22:48:18.974Z,69.50
2017-09-10T22:50:46.219Z,68.80
2017-09-10T22:53:12.673Z,68.80
2017-09-10T22:55:39.848Z,69.60
2017-09-10T22:58:07.066Z,68.20
2017-09-10T23:00:33.495Z,68.20
2017-09-10T23:03:00.719Z,69.40
2017-09-10T23:05:27.153Z,70.40
2017-09-10T23:07:53.586Z,70.60
2017-09-10T23:10:20.026Z,70.60
2017-09-10T23:12:46.429Z,71.30
2017-09-10T23:15:12.906Z,71.20
2017-09-10T23:17:39.338Z,70.90
2017-09-10T23:20:05.761Z,70.60
2017-09-10T23:22:32.197Z,70.00
2017-09-10T23:24:58.645Z,69.70
2017-09-10T23:27:25.082Z,69.80
2017-09-10T23:29:52.271Z,70.00
2017-09-10T23:32:19.441Z,69.20
2017-09-10T23:34:45.869Z,69.20
2017-09-10T23:37:12.265Z,68.80
2017-09-10T23:39:38.767Z,68.50
2017-09-10T23:42:05.961Z,68.10
2017-09-10T23:44:32.413Z,68.10
2017-09-10T23:46:58.874Z,67.70
2017-09-10T23:49:25.271Z,68.00
2017-09-10T23:51:51.725Z,67.80
2017-09-10T23:54:18.145Z,67.90
2017-09-10T23:56:44.577Z,67.60
2017-09-10T23:59:11.042Z,67.30
